Time;durP1;ratioP1;P1;durP2;ratioP2;P2;SDS_P1;SDS_P2;PMS_P1;PMS_P2;Temp;Humidity;BMP_temperature;BMP_pressure;BME280_temperature;BME280_humidity;BME280_pressure;Samples;Min_cycle;Max_cycle;Signal;HPM_P1;HPM_P2
2022/05/07 00:02:16;;;;;;;40.23;31.30;;;14.20;99.90;;;;;;5135710;27;20288;-72
2022/05/07 00:04:43;;;;;;;42.30;31.67;;;14.20;99.90;;;;;;5137038;27;20779;-71
2022/05/07 00:07:09;;;;;;;42.97;32.57;;;;;;;;;;5119000;27;20299;-72
2022/05/07 00:09:36;;;;;;;42.77;32.67;;;14.20;99.90;;;;;;5137446;27;20359;-71
2022/05/07 00:12:02;;;;;;;43.07;32.57;;;14.20;99.90;;;;;;5136752;27;20283;-73
2022/05/07 00:14:27;;;;;;;42.27;34.37;;;14.30;99.90;;;;;;5137019;27;20306;-71
2022/05/07 00:19:37;;;;;;;43.50;34.13;;;14.20;99.90;;;;;;5136991;27;20049;-71
2022/05/07 00:22:03;;;;;;;44.23;34.00;;;14.20;99.90;;;;;;5136768;27;20295;-72
2022/05/07 00:24:29;;;;;;;42.70;33.77;;;14.20;99.90;;;;;;5136838;27;20055;-71
2022/05/07 00:26:55;;;;;;;44.00;33.73;;;14.20;99.90;;;;;;5153109;27;20043;-71
2022/05/07 00:29:21;;;;;;;47.67;35.37;;;14.10;99.90;;;;;;5136567;27;20273;-72
2022/05/07 00:31:46;;;;;;;40.47;30.90;;;14.10;99.90;;;;;;5170464;27;20057;-72
2022/05/07 00:34:12;;;;;;;42.73;33.57;;;14.10;99.90;;;;;;5169982;27;20053;-72
2022/05/07 00:36:38;;;;;;;45.63;33.10;;;14.00;99.90;;;;;;5136693;27;20050;-72
2022/05/07 00:39:04;;;;;;;42.37;34.23;;;14.00;99.90;;;;;;5170026;27;20102;-72
2022/05/07 00:41:30;;;;;;;40.00;32.30;;;14.00;99.90;;;;;;5136663;27;20559;-72
2022/05/07 00:43:55;;;;;;;40.73;32.37;;;14.00;99.90;;;;;;5136254;27;20326;-72
2022/05/07 00:46:24;;;;;;;38.23;30.77;;;14.00;99.90;;;;;;5152079;27;20057;-72
2022/05/07 00:48:50;;;;;;;37.03;30.37;;;14.00;99.90;;;;;;5135160;27;20043;-72
2022/05/07 00:51:34;;;;;;;42.27;32.33;;;14.00;99.90;;;;;;5136029;27;20364;-72
2022/05/07 00:54:08;;;;;;;38.10;30.90;;;14.00;99.90;;;;;;5136249;27;20324;-71
2022/05/07 00:56:36;;;;;;;37.27;30.37;;;14.00;99.90;;;;;;5134383;27;20806;-71
2022/05/07 00:59:03;;;;;;;45.80;30.57;;;14.00;99.90;;;;;;5136238;27;20284;-71
2022/05/07 01:01:29;;;;;;;36.60;29.40;;;14.00;99.90;;;;;;5135770;27;20341;-71
2022/05/07 01:03:55;;;;;;;40.10;31.10;;;13.90;99.90;;;;;;5152291;27;20285;-71
2022/05/07 01:06:21;;;;;;;38.13;31.30;;;13.90;99.90;;;;;;5135879;27;20053;-71
2022/05/07 01:08:48;;;;;;;41.73;31.47;;;13.90;99.90;;;;;;5136238;27;20624;-71
2022/05/07 01:11:18;;;;;;;38.60;31.43;;;13.90;99.90;;;;;;5135617;27;20744;-71
2022/05/07 01:13:45;;;;;;;35.67;31.47;;;13.90;99.90;;;;;;5135814;27;20341;-71
2022/05/07 01:16:12;;;;;;;38.60;31.37;;;13.80;99.90;;;;;;5135526;27;20277;-72
2022/05/07 01:18:39;;;;;;;39.47;30.33;;;13.80;99.90;;;;;;5134887;27;20288;-71
2022/05/07 01:21:14;;;;;;;36.07;31.07;;;13.80;99.90;;;;;;5134927;27;20327;-72
2022/05/07 01:23:42;;;;;;;33.73;29.10;;;13.90;99.90;;;;;;5135727;27;20281;-71
2022/05/07 01:26:08;;;;;;;35.57;30.33;;;13.90;99.90;;;;;;5117609;27;20313;-71
2022/05/07 01:28:34;;;;;;;34.03;28.57;;;13.90;99.90;;;;;;5135298;27;20341;-71
2022/05/07 01:31:00;;;;;;;38.50;29.63;;;13.90;99.90;;;;;;5135569;27;20280;-71
2022/05/07 01:33:26;;;;;;;37.97;31.30;;;13.90;99.90;;;;;;5135139;27;20106;-72
2022/05/07 01:35:52;;;;;;;38.97;29.03;;;13.90;99.90;;;;;;5135492;27;20842;-72
2022/05/07 01:38:17;;;;;;;32.40;27.47;;;13.90;99.90;;;;;;5135098;27;20502;-72
2022/05/07 01:40:43;;;;;;;36.27;29.00;;;13.80;99.90;;;;;;5135464;27;20387;-72
2022/05/07 01:43:09;;;;;;;35.67;28.70;;;13.80;99.90;;;;;;5135420;27;20050;-71
2022/05/07 01:45:35;;;;;;;33.37;28.40;;;13.80;99.90;;;;;;5135025;27;20043;-71
2022/05/07 01:48:09;;;;;;;32.67;27.97;;;13.70;99.90;;;;;;5135515;27;20121;-71
2022/05/07 01:50:37;;;;;;;34.10;28.60;;;13.70;99.90;;;;;;5133572;27;20479;-71
2022/05/07 01:53:04;;;;;;;33.53;27.03;;;13.60;99.90;;;;;;5134168;27;20054;-71
2022/05/07 01:55:31;;;;;;;33.90;28.00;;;13.60;99.90;;;;;;5134456;27;20313;-71
2022/05/07 01:57:56;;;;;;;34.53;28.37;;;13.60;99.90;;;;;;5134929;27;20280;-71
2022/05/07 02:00:22;;;;;;;35.50;30.47;;;13.60;99.90;;;;;;5168045;27;20286;-72
2022/05/07 02:02:48;;;;;;;35.97;28.63;;;13.60;99.90;;;;;;5133960;27;20050;-71
2022/05/07 02:05:13;;;;;;;32.13;28.63;;;13.70;99.90;;;;;;5168556;27;20054;-71
2022/05/07 02:07:39;;;;;;;33.33;29.63;;;13.60;99.90;;;;;;5133565;27;20046;-71
2022/05/07 02:10:05;;;;;;;34.63;29.60;;;13.60;99.90;;;;;;5133786;27;20471;-71
2022/05/07 02:12:31;;;;;;;33.17;28.23;;;13.60;99.90;;;;;;5134445;27;20082;-71
2022/05/07 02:14:56;;;;;;;38.00;30.50;;;13.60;99.90;;;;;;5134644;27;20129;-71
2022/05/07 02:17:22;;;;;;;31.67;27.70;;;13.50;99.90;;;;;;5134379;27;20095;-72
2022/05/07 02:19:48;;;;;;;32.00;28.50;;;13.50;99.90;;;;;;5133372;27;20134;-71
2022/05/07 02:22:14;;;;;;;30.43;27.10;;;13.50;99.90;;;;;;5116531;27;20089;-71
2022/05/07 02:24:39;;;;;;;31.87;28.13;;;13.50;99.90;;;;;;5133113;27;20122;-72
2022/05/07 02:27:05;;;;;;;33.80;27.47;;;13.50;99.90;;;;;;5134719;27;20055;-72
2022/05/07 02:29:31;;;;;;;33.60;27.40;;;13.50;99.90;;;;;;5134208;27;20394;-72
2022/05/07 02:32:06;;;;;;;29.57;26.47;;;13.40;99.90;;;;;;5116613;27;20074;-71
2022/05/07 02:34:32;;;;;;;;;;;13.40;99.90;;;;;;5134602;27;20078;-71
2022/05/07 02:36:58;;;;;;;29.70;26.60;;;13.40;99.90;;;;;;5134373;27;19941;-71
2022/05/07 02:39:24;;;;;;;29.30;26.20;;;13.30;99.90;;;;;;5133080;27;20375;-71
2022/05/07 02:44:34;;;;;;;31.53;26.60;;;13.30;99.90;;;;;;5132924;27;20047;-71
2022/05/07 02:46:59;;;;;;;28.93;25.93;;;13.30;99.90;;;;;;5134154;27;20372;-71
2022/05/07 02:49:25;;;;;;;28.67;25.57;;;13.30;99.90;;;;;;5132742;27;20043;-71
2022/05/07 02:51:51;;;;;;;29.63;26.63;;;13.30;99.90;;;;;;5134134;27;20092;-71
2022/05/07 02:54:17;;;;;;;29.63;26.53;;;13.20;99.90;;;;;;5134174;27;20055;-71
2022/05/07 02:56:43;;;;;;;29.27;25.93;;;13.20;99.90;;;;;;5133477;27;20840;-71
2022/05/07 02:59:08;;;;;;;30.23;26.97;;;13.20;99.90;;;;;;5167670;27;20047;-71
2022/05/07 03:01:34;;;;;;;30.27;26.43;;;13.20;99.90;;;;;;5167336;27;20074;-71
2022/05/07 03:04:00;;;;;;;30.13;26.87;;;13.20;99.90;;;;;;5133069;27;20047;-71
2022/05/07 03:06:26;;;;;;;29.73;26.53;;;13.20;99.90;;;;;;5167418;27;20284;-71
2022/05/07 03:08:52;;;;;;;29.73;26.60;;;13.20;99.90;;;;;;5167552;27;20126;-71
2022/05/07 03:11:18;;;;;;;31.80;26.53;;;13.20;99.90;;;;;;5133570;27;20047;-71
2022/05/07 03:13:44;;;;;;;29.77;26.57;;;13.20;99.90;;;;;;5132123;28;20285;-71
2022/05/07 03:16:10;;;;;;;30.03;26.40;;;13.20;99.90;;;;;;5115592;28;20636;-70
2022/05/07 03:18:35;;;;;;;28.37;25.57;;;13.20;99.90;;;;;;5133593;27;20046;-71
2022/05/07 03:21:02;;;;;;;30.27;27.17;;;13.20;99.90;;;;;;5133842;27;20486;-71
2022/05/07 03:23:28;;;;;;;28.93;26.13;;;13.20;99.90;;;;;;5133443;27;20082;-71
2022/05/07 03:25:55;;;;;;;31.00;26.83;;;13.20;99.90;;;;;;5133684;28;20304;-71
2022/05/07 03:28:20;;;;;;;30.57;27.57;;;13.20;99.90;;;;;;5133737;27;20051;-72
2022/05/07 03:30:46;;;;;;;28.80;25.80;;;13.20;99.90;;;;;;5132312;28;20325;-71
2022/05/07 03:33:12;;;;;;;28.87;25.90;;;13.10;99.90;;;;;;5166885;27;20373;-71
2022/05/07 03:35:39;;;;;;;27.70;25.00;;;13.20;99.90;;;;;;5131799;28;20055;-72
2022/05/07 03:38:04;;;;;;;29.50;26.27;;;13.20;99.90;;;;;;5133737;27;20345;-71
2022/05/07 03:40:32;;;;;;;29.30;26.30;;;13.20;99.90;;;;;;5166827;27;20764;-72
2022/05/07 03:42:58;;;;;;;29.10;26.10;;;13.20;99.90;;;;;;5133364;27;20047;-72
2022/05/07 03:45:24;;;;;;;30.13;26.63;;;13.20;99.90;;;;;;5133409;27;20272;-72
2022/05/07 03:47:50;;;;;;;30.53;27.27;;;13.20;99.90;;;;;;5132956;28;20276;-71
2022/05/07 03:50:16;;;;;;;30.07;26.97;;;13.20;99.90;;;;;;5132063;28;20334;-71
2022/05/07 03:55:26;;;;;;;31.37;28.17;;;13.20;99.90;;;;;;5133049;28;20483;-71
2022/05/07 03:57:52;;;;;;;28.43;25.53;;;13.20;99.90;;;;;;5131801;28;20281;-71
2022/05/07 04:00:18;;;;;;;32.07;27.67;;;13.10;99.90;;;;;;5133201;27;20386;-71
2022/05/07 04:02:44;;;;;;;28.70;25.43;;;13.20;99.90;;;;;;5114474;28;20320;-71
2022/05/07 04:05:09;;;;;;;29.33;26.33;;;13.10;99.90;;;;;;5115035;28;20047;-71
2022/05/07 04:07:36;;;;;;;30.73;27.57;;;13.20;99.90;;;;;;5132791;28;20046;-71
2022/05/07 04:10:02;;;;;;;29.43;26.43;;;13.10;99.90;;;;;;5132416;28;20138;-72
2022/05/07 04:12:28;;;;;;;29.43;26.33;;;13.20;99.90;;;;;;5133338;27;20276;-72
2022/05/07 04:14:58;;;;;;;29.63;26.50;;;13.20;99.90;;;;;;5166282;27;20308;-72
2022/05/07 04:17:25;;;;;;;28.97;26.07;;;13.10;99.90;;;;;;5133359;27;20079;-71
2022/05/07 04:19:51;;;;;;;29.30;26.20;;;13.10;99.90;;;;;;5132995;27;20428;-72
2022/05/07 04:22:17;;;;;;;30.50;27.40;;;13.10;99.90;;;;;;5133180;27;20822;-71
2022/05/07 04:24:43;;;;;;;29.10;26.10;;;13.20;99.90;;;;;;5134917;27;20050;-71
2022/05/07 04:27:09;;;;;;;29.80;26.73;;;13.10;99.90;;;;;;5136926;27;20046;-72
2022/05/07 04:29:35;;;;;;;29.63;25.60;;;13.20;99.90;;;;;;5136446;27;20745;-72
2022/05/07 04:32:01;;;;;;;29.77;26.80;;;13.20;99.90;;;;;;5118792;27;20042;-72
2022/05/07 04:34:28;;;;;;;30.83;27.67;;;13.20;99.90;;;;;;5136616;27;20130;-71
2022/05/07 04:36:54;;;;;;;30.73;27.63;;;13.20;99.90;;;;;;5136368;27;20272;-72
2022/05/07 04:39:20;;;;;;;30.33;27.10;;;13.20;99.90;;;;;;5136638;27;20272;-71
2022/05/07 04:41:46;;;;;;;30.23;27.20;;;13.20;99.90;;;;;;5136257;27;20046;-71
2022/05/07 04:44:12;;;;;;;28.60;25.80;;;13.20;99.90;;;;;;5136575;27;20748;-71
2022/05/07 04:46:39;;;;;;;31.33;28.23;;;13.20;99.90;;;;;;5136185;27;20483;-72
2022/05/07 04:49:06;;;;;;;30.57;27.27;;;13.20;99.90;;;;;;5169969;27;20126;-71
2022/05/07 04:51:32;;;;;;;31.20;27.80;;;13.20;99.90;;;;;;5135162;27;20276;-71
2022/05/07 04:53:58;;;;;;;31.13;28.10;;;13.30;99.90;;;;;;5134994;27;20295;-71
2022/05/07 04:56:24;;;;;;;30.37;27.20;;;13.20;99.90;;;;;;5135843;27;20293;-71
2022/05/07 04:58:53;;;;;;;29.77;26.77;;;13.20;99.90;;;;;;5136013;27;20047;-72
2022/05/07 05:01:18;;;;;;;30.67;27.27;;;13.30;99.90;;;;;;5136138;27;20281;-72
2022/05/07 05:03:44;;;;;;;31.60;27.30;;;13.30;99.90;;;;;;5134960;27;20288;-72
2022/05/07 05:06:10;;;;;;;29.57;26.70;;;13.30;99.90;;;;;;5136106;27;20376;-72
2022/05/07 05:08:35;;;;;;;31.60;28.50;;;13.40;99.90;;;;;;5136023;27;20098;-72
2022/05/07 05:11:01;;;;;;;30.63;27.37;;;13.40;99.90;;;;;;5134684;27;20427;-71
2022/05/07 05:13:27;;;;;;;30.13;27.13;;;13.50;99.90;;;;;;5169789;27;20049;-71
2022/05/07 05:15:52;;;;;;;30.33;27.27;;;13.50;99.90;;;;;;5135471;27;20039;-71
2022/05/07 05:18:18;;;;;;;31.40;27.97;;;13.50;99.90;;;;;;5135875;27;20103;-71
2022/05/07 05:20:44;;;;;;;31.00;27.83;;;13.50;99.90;;;;;;5151264;27;20054;-72
2022/05/07 05:23:09;;;;;;;31.23;28.00;;;13.60;99.90;;;;;;5169236;27;20043;-71
2022/05/07 05:25:35;;;;;;;29.20;26.30;;;13.60;99.90;;;;;;5135834;27;20054;-71
2022/05/07 05:28:01;;;;;;;29.97;27.07;;;13.60;99.90;;;;;;5135384;27;20516;-72
2022/05/07 05:30:27;;;;;;;29.57;26.67;;;13.60;99.90;;;;;;5135609;27;20094;-71
2022/05/07 05:32:52;;;;;;;30.70;27.60;;;13.60;99.90;;;;;;5168939;27;20044;-72
2022/05/07 05:35:18;;;;;;;31.47;27.33;;;13.60;99.90;;;;;;5134770;27;20043;-72
2022/05/07 05:37:44;;;;;;;30.47;26.50;;;13.60;99.90;;;;;;5151623;27;20496;-72
2022/05/07 05:40:10;;;;;;;30.77;26.93;;;13.60;99.90;;;;;;5135413;27;20129;-72
2022/05/07 05:42:35;;;;;;;28.13;25.33;;;13.60;99.90;;;;;;5151678;27;20047;-72
2022/05/07 05:45:01;;;;;;;28.17;25.43;;;13.60;99.90;;;;;;5135074;27;20483;-71
2022/05/07 05:47:27;;;;;;;29.00;26.20;;;13.60;99.90;;;;;;5168721;27;20051;-72
2022/05/07 05:49:52;;;;;;;30.10;27.03;;;13.70;99.90;;;;;;5133660;27;20047;-71
2022/05/07 05:52:18;;;;;;;31.80;26.80;;;13.70;99.90;;;;;;5151715;27;20054;-71
2022/05/07 05:54:45;;;;;;;29.37;25.13;;;13.80;99.90;;;;;;5134761;27;20522;-72
2022/05/07 05:57:10;;;;;;;29.13;26.20;;;13.90;99.90;;;;;;5135409;27;20059;-71
2022/05/07 05:59:36;;;;;;;28.10;25.40;;;14.00;99.90;;;;;;5135174;27;20417;-72
2022/05/07 06:02:02;;;;;;;28.00;24.80;;;14.10;99.90;;;;;;5133455;27;20557;-71
2022/05/07 06:04:28;;;;;;;27.23;24.53;;;14.30;99.90;;;;;;5135138;27;20050;-71
2022/05/07 06:06:53;;;;;;;26.93;24.23;;;14.50;99.90;;;;;;5168020;27;20496;-71
2022/05/07 06:09:21;;;;;;;26.67;23.97;;;14.80;99.90;;;;;;5168534;27;20054;-71
2022/05/07 06:11:47;;;;;;;26.13;23.40;;;;;;;;;;5133649;27;20451;-72
2022/05/07 06:14:13;;;;;;;27.63;24.87;;;15.60;99.90;;;;;;5133836;27;20303;-72
2022/05/07 06:16:38;;;;;;;26.50;23.70;;;16.20;99.90;;;;;;5168464;27;20616;-71
2022/05/07 06:19:05;;;;;;;23.83;21.53;;;16.60;99.90;;;;;;5133219;27;20050;-72
2022/05/07 06:21:31;;;;;;;25.07;22.57;;;16.70;99.90;;;;;;5168339;27;20395;-72
2022/05/07 06:27:28;;;;;;;26.23;23.10;;;17.20;99.90;;;;;;5133261;27;20276;-71
2022/05/07 06:29:27;;;;;;;25.77;23.17;;;;;;;;;;5134224;27;20479;-72
2022/05/07 06:31:52;;;;;;;24.93;22.33;;;19.40;99.90;;;;;;5134159;27;20051;-72
2022/05/07 06:34:22;;;;;;;25.83;23.23;;;20.20;99.90;;;;;;5134366;27;20483;-72
2022/05/07 06:36:47;;;;;;;26.00;23.30;;;20.90;99.90;;;;;;5132910;27;20047;-72
2022/05/07 06:39:15;;;;;;;25.93;23.53;;;21.40;99.90;;;;;;5133040;27;20114;-72
2022/05/07 06:41:41;;;;;;;24.90;22.57;;;21.70;99.90;;;;;;5134400;27;20057;-72
2022/05/07 06:44:07;;;;;;;25.07;22.67;;;22.20;99.90;;;;;;5134019;27;20999;-72
2022/05/07 06:46:33;;;;;;;25.17;22.77;;;;;;;;;;5132214;27;20047;-71
2022/05/07 06:48:59;;;;;;;23.77;21.40;;;23.00;94.00;;;;;;5133349;27;20050;-72
2022/05/07 06:51:24;;;;;;;24.77;22.47;;;23.20;91.00;;;;;;5116065;27;20046;-71
2022/05/07 06:53:50;;;;;;;25.77;23.27;;;23.10;86.40;;;;;;5133754;27;20046;-72
2022/05/07 06:56:16;;;;;;;24.87;22.37;;;22.90;85.50;;;;;;5132725;27;20057;-71
2022/05/07 06:58:42;;;;;;;23.57;21.30;;;22.70;85.00;;;;;;5134116;27;20585;-69
2022/05/07 07:01:08;;;;;;;24.60;22.10;;;22.10;85.10;;;;;;5134076;27;20100;-69
2022/05/07 07:03:33;;;;;;;29.07;26.13;;;21.90;86.70;;;;;;5134181;27;20050;-70
2022/05/07 07:06:00;;;;;;;27.67;25.03;;;21.60;85.50;;;;;;5115540;28;20118;-70
2022/05/07 07:08:29;;;;;;;30.50;27.67;;;21.40;88.00;;;;;;5116126;28;20062;-70
2022/05/07 07:10:55;;;;;;;30.77;27.60;;;;;;;;;;5133729;27;20050;-71
2022/05/07 07:13:21;;;;;;;31.80;28.47;;;;;;;;;;5133897;27;20051;-71
2022/05/07 07:15:48;;;;;;;35.13;31.53;;;;;;;;;;5133755;27;20050;-71
2022/05/07 07:18:14;;;;;;;33.47;30.07;;;19.00;98.60;;;;;;5133499;27;20471;-71
2022/05/07 07:20:41;;;;;;;34.77;31.07;;;18.80;99.90;;;;;;5115849;28;20058;-71
2022/05/07 07:23:11;;;;;;;40.47;36.13;;;18.50;99.90;;;;;;5133495;28;20070;-71
2022/05/07 07:25:41;;;;;;;41.10;36.70;;;18.60;99.90;;;;;;5133427;28;20510;-71
2022/05/07 07:28:11;;;;;;;44.70;37.87;;;18.60;99.90;;;;;;5133500;28;20050;-71
2022/05/07 07:30:37;;;;;;;44.97;37.63;;;18.40;99.90;;;;;;5133645;27;20050;-71
2022/05/07 07:33:04;;;;;;;42.07;37.40;;;18.10;99.90;;;;;;5133484;28;20466;-71
2022/05/07 07:35:31;;;;;;;42.70;37.07;;;18.10;99.90;;;;;;5132438;28;20039;-71
2022/05/07 07:37:57;;;;;;;44.37;37.43;;;17.90;99.90;;;;;;5133451;27;20126;-71
2022/05/07 07:40:23;;;;;;;40.40;36.07;;;;;;;;;;5133662;28;20047;-70
2022/05/07 07:42:49;;;;;;;45.60;38.23;;;;;;;;;;5132395;28;20050;-70
2022/05/07 07:48:00;;;;;;;40.53;36.03;;;17.50;99.90;;;;;;5132485;28;20051;-71
2022/05/07 07:50:35;;;;;;;44.07;35.87;;;17.60;99.90;;;;;;5132326;28;20051;-71
2022/05/07 07:53:08;;;;;;;41.00;35.23;;;17.60;99.90;;;;;;5132105;28;20066;-72
2022/05/07 07:55:34;;;;;;;39.17;34.90;;;17.70;99.90;;;;;;5132301;28;20051;-71
2022/05/07 07:58:02;;;;;;;39.90;34.97;;;17.70;99.90;;;;;;5133859;27;20423;-71
2022/05/07 08:00:30;;;;;;;43.70;36.47;;;17.60;99.90;;;;;;5137475;27;20058;-71
2022/05/07 08:02:58;;;;;;;41.50;36.03;;;17.60;99.90;;;;;;5137089;27;20039;-70
2022/05/07 08:05:26;;;;;;;39.47;35.13;;;17.50;99.90;;;;;;5136692;27;20074;-71
2022/05/07 08:13:21;;;;;;;41.23;36.70;;;17.40;99.90;;;;;;5135582;27;20403;-70
2022/05/07 08:15:47;;;;;;;39.93;35.27;;;17.40;99.90;;;;;;5136722;27;20039;-70
2022/05/07 08:18:14;;;;;;;44.53;36.83;;;17.40;99.90;;;;;;5135514;27;20054;-70
2022/05/07 08:20:43;;;;;;;44.23;35.60;;;17.40;99.90;;;;;;5118900;27;20070;-69
2022/05/07 08:23:10;;;;;;;39.73;34.83;;;17.30;99.90;;;;;;5135764;27;20129;-69
2022/05/07 08:25:37;;;;;;;42.93;35.37;;;17.40;99.90;;;;;;5136910;27;20045;-68
2022/05/07 08:28:04;;;;;;;38.87;34.67;;;17.50;99.90;;;;;;5135377;27;20123;-70
2022/05/07 08:30:30;;;;;;;37.77;31.83;;;17.60;99.90;;;;;;5136824;27;20074;-70
2022/05/07 08:32:57;;;;;;;38.70;34.57;;;17.70;99.90;;;;;;5136886;27;20043;-70
2022/05/07 08:35:23;;;;;;;45.77;36.97;;;17.80;99.90;;;;;;5136427;27;20043;-69
2022/05/07 08:37:50;;;;;;;39.30;34.37;;;17.90;99.90;;;;;;5136674;27;20054;-70
2022/05/07 08:40:18;;;;;;;38.13;34.03;;;18.00;99.90;;;;;;5135175;27;20525;-70
2022/05/07 08:42:44;;;;;;;38.07;33.50;;;18.00;99.90;;;;;;5135483;27;20053;-69
2022/05/07 08:45:12;;;;;;;36.83;32.03;;;18.00;99.90;;;;;;5136407;27;20131;-68
2022/05/07 08:47:39;;;;;;;34.77;30.77;;;17.90;99.90;;;;;;5135498;27;20050;-70
2022/05/07 08:50:09;;;;;;;35.53;31.67;;;;;;;;;;5135565;27;20089;-69
2022/05/07 08:52:38;;;;;;;39.43;33.73;;;;;;;;;;5136522;27;20096;-71
2022/05/07 08:55:04;;;;;;;38.27;31.67;;;18.30;99.90;;;;;;5136195;27;20077;-70
2022/05/07 08:57:30;;;;;;;38.47;33.37;;;18.40;99.90;;;;;;5136773;27;20084;-70
2022/05/07 08:59:56;;;;;;;42.10;34.23;;;18.40;99.90;;;;;;5169841;27;20051;-69
2022/05/07 09:02:22;;;;;;;42.87;33.67;;;;;;;;;;5136194;27;20051;-68
2022/05/07 09:04:55;;;;;;;42.90;37.63;;;;;;;;;;5136170;27;20099;-74
2022/05/07 09:07:21;;;;;;;43.00;38.40;;;;;;;;;;5135889;27;20475;-68
2022/05/07 09:09:51;;;;;;;42.53;37.90;;;;;;;;;;5134304;27;20047;-71
2022/05/07 09:12:24;;;;;;;47.27;38.10;;;;;;;;;;5134377;27;20090;-70
2022/05/07 09:14:50;;;;;;;45.73;37.37;;;;;;;;;;5135767;27;20054;-69
2022/05/07 09:17:18;;;;;;;41.73;36.67;;;;;;;;;;5135592;27;20070;-70
2022/05/07 09:19:45;;;;;;;40.73;36.33;;;;;;;;;;5135849;27;20083;-69
2022/05/07 09:22:11;;;;;;;41.17;35.93;;;;;;;;;;5135602;27;20047;-70
2022/05/07 09:24:38;;;;;;;42.80;38.07;;;18.50;99.90;;;;;;5135734;27;20054;-69
2022/05/07 09:27:04;;;;;;;40.30;35.83;;;18.30;99.90;;;;;;5134916;27;20050;-70
2022/05/07 09:29:31;;;;;;;42.20;35.93;;;18.20;99.90;;;;;;5135465;27;20112;-71
2022/05/07 09:32:13;;;;;;;42.03;34.90;;;18.20;99.90;;;;;;5135644;27;20403;-69
2022/05/07 09:38:01;;;;;;;41.77;37.20;;;18.20;99.90;;;;;;5134694;27;20047;-70
2022/05/07 09:40:27;;;;;;;43.13;33.83;;;18.10;99.90;;;;;;5135187;27;20047;-70
2022/05/07 09:42:57;;;;;;;40.93;32.23;;;18.10;99.90;;;;;;5135157;27;20558;-69
2022/05/07 09:45:28;;;;;;;37.67;31.00;;;18.10;99.90;;;;;;5135175;27;20043;-69
2022/05/07 09:48:00;;;;;;;32.03;27.07;;;18.20;99.90;;;;;;5134328;27;20394;-70
2022/05/07 09:58:43;;;;;;;34.73;29.10;;;18.40;99.90;;;;;;5134175;27;20036;-69
2022/05/07 10:01:20;;;;;;;38.30;30.90;;;18.40;99.90;;;;;;5134573;27;20050;-70
2022/05/07 10:04:20;;;;;;;37.50;29.17;;;18.50;99.90;;;;;;5130870;27;20051;-69
2022/05/07 10:07:27;;;;;;;35.43;30.27;;;18.50;99.90;;;;;;5114515;28;20052;-69
2022/05/07 10:10:14;;;;;;;36.67;28.80;;;18.70;99.90;;;;;;5099726;28;20051;-67
2022/05/07 10:12:44;;;;;;;33.70;29.17;;;18.80;99.90;;;;;;5114325;28;20046;-69
2022/05/07 10:15:12;;;;;;;31.63;27.93;;;19.00;99.90;;;;;;5114240;28;20048;-69
2022/05/07 10:17:38;;;;;;;34.10;28.77;;;;;;;;;;5113851;28;20487;-69
2022/05/07 10:20:09;;;;;;;30.97;26.17;;;19.10;99.90;;;;;;5112964;28;20075;-68
2022/05/07 10:22:36;;;;;;;37.23;31.93;;;19.20;99.90;;;;;;5113362;28;20039;-69
2022/05/07 10:25:10;;;;;;;50.33;38.67;;;19.10;99.90;;;;;;5114220;28;20399;-69
2022/05/07 10:27:44;;;;;;;47.42;39.88;;;19.00;99.90;;;;;;5113878;28;20097;-66
2022/05/07 10:30:19;;;;;;;44.70;37.10;;;18.60;99.90;;;;;;5114180;28;20118;-70
2022/05/07 10:32:59;;;;;;;45.27;36.20;;;18.60;99.90;;;;;;5114000;28;20046;-69
2022/05/07 10:35:52;;;;;;;49.03;38.97;;;18.60;99.90;;;;;;5095726;28;20050;-71
2022/05/07 10:38:27;;;;;;;45.70;39.23;;;;;;;;;;5113697;28;20452;-68
2022/05/07 10:40:56;;;;;;;44.17;38.37;;;18.50;99.90;;;;;;5112756;28;20135;-69
2022/05/07 10:43:28;;;;;;;44.30;37.60;;;18.50;99.90;;;;;;5113409;28;20400;-69
2022/05/07 10:46:07;;;;;;;48.00;38.93;;;18.50;99.90;;;;;;5113947;28;20210;-69
2022/05/07 10:48:46;;;;;;;49.07;39.03;;;18.60;99.90;;;;;;5112442;28;20056;-70
2022/05/07 10:51:21;;;;;;;49.47;37.67;;;18.50;99.90;;;;;;5113614;28;20176;-69
2022/05/07 10:53:49;;;;;;;46.47;38.27;;;18.60;99.90;;;;;;5112401;28;20047;-69
2022/05/07 10:56:16;;;;;;;39.30;32.83;;;18.60;99.90;;;;;;5113123;28;20425;-68
2022/05/07 10:58:50;;;;;;;37.93;31.73;;;18.40;99.90;;;;;;5113466;28;20133;-69
2022/05/07 11:01:18;;;;;;;35.63;30.17;;;18.10;99.90;;;;;;5113749;28;20122;-65
2022/05/07 11:03:44;;;;;;;33.67;29.27;;;18.00;99.90;;;;;;5112486;28;20071;-67
2022/05/07 11:06:10;;;;;;;36.10;29.70;;;18.00;99.90;;;;;;5113345;28;20055;-67
2022/05/07 11:08:56;;;;;;;32.50;26.33;;;18.10;99.90;;;;;;5113062;28;20043;-67
2022/05/07 11:11:24;;;;;;;29.27;24.27;;;18.30;99.90;;;;;;5113085;28;20073;-67
2022/05/07 11:13:55;;;;;;;27.83;23.27;;;18.40;99.90;;;;;;5112066;28;20059;-67
2022/05/07 11:16:23;;;;;;;27.60;23.30;;;18.30;99.90;;;;;;5113017;28;20044;-67
2022/05/07 11:18:53;;;;;;;24.80;20.70;;;18.20;99.90;;;;;;5095513;28;20135;-67
2022/05/07 11:21:20;;;;;;;27.03;21.33;;;18.30;99.90;;;;;;5113156;28;20039;-67
2022/05/07 11:23:53;;;;;;;22.17;18.33;;;18.30;99.90;;;;;;5113342;28;20044;-67
2022/05/07 11:26:20;;;;;;;24.53;17.93;;;18.30;99.90;;;;;;5112107;28;20044;-67
2022/05/07 11:28:46;;;;;;;19.77;16.33;;;18.40;99.90;;;;;;5113218;28;20127;-67
2022/05/07 11:31:29;;;;;;;19.57;15.07;;;18.30;99.90;;;;;;5112150;28;20387;-67
2022/05/07 11:34:13;;;;;;;24.30;16.17;;;18.50;99.90;;;;;;5114521;28;20130;-67
2022/05/07 11:36:39;;;;;;;17.17;14.87;;;18.40;99.90;;;;;;5117097;27;20047;-67
2022/05/07 11:39:11;;;;;;;17.47;14.60;;;18.40;99.90;;;;;;5116216;28;20144;-67
2022/05/07 11:41:37;;;;;;;19.27;14.77;;;18.40;99.90;;;;;;5116963;28;20055;-67
2022/05/07 11:46:52;;;;;;;15.95;13.82;;;18.30;99.90;;;;;;5117223;28;20055;-67
2022/05/07 11:49:35;;;;;;;17.33;13.27;;;18.40;99.90;;;;;;5117130;28;20051;-67
2022/05/07 11:52:27;;;;;;;15.70;12.87;;;18.50;99.90;;;;;;5117046;28;20539;-64
2022/05/07 11:54:52;;;;;;;17.67;13.50;;;18.60;99.90;;;;;;5117127;28;20387;-67
2022/05/07 11:57:31;;;;;;;16.03;12.63;;;18.60;99.90;;;;;;5116622;28;20055;-67
2022/05/07 11:59:57;;;;;;;17.13;13.37;;;18.70;99.90;;;;;;5115934;28;20052;-66
2022/05/07 12:02:23;;;;;;;18.93;13.03;;;18.70;99.90;;;;;;5115670;28;20054;-68
2022/05/07 12:04:58;;;;;;;16.60;13.50;;;18.70;99.90;;;;;;5116725;28;20133;-67
2022/05/07 12:07:24;;;;;;;15.80;13.20;;;18.80;99.90;;;;;;5115561;28;20132;-68
2022/05/07 12:09:49;;;;;;;14.20;11.30;;;18.60;99.90;;;;;;5116662;28;20193;-67
2022/05/07 12:12:15;;;;;;;15.40;12.83;;;18.60;99.90;;;;;;5116595;28;20040;-66
2022/05/07 12:14:41;;;;;;;18.13;13.83;;;18.70;99.90;;;;;;5116254;28;20039;-65
2022/05/07 12:19:50;;;;;;;18.50;14.70;;;18.60;99.90;;;;;;5116492;28;20074;-64
2022/05/07 12:30:29;;;;;;;16.20;13.52;;;18.40;99.90;;;;;;5116114;28;20043;-81
2022/05/07 12:32:55;;;;;;;14.90;11.20;;;18.30;99.90;;;;;;5115283;28;20369;-67
2022/05/07 12:35:21;;;;;;;16.47;12.13;;;18.30;99.90;;;;;;5116159;27;20094;-67
2022/05/07 12:37:46;;;;;;;15.33;9.93;;;18.40;99.90;;;;;;5115839;28;20161;-68
2022/05/07 12:40:12;;;;;;;14.93;9.47;;;18.50;99.90;;;;;;5114941;28;20047;-67
2022/05/07 12:42:39;;;;;;;13.20;9.43;;;18.60;99.90;;;;;;5114441;28;20071;-67
2022/05/07 12:45:06;;;;;;;12.73;9.67;;;18.80;99.90;;;;;;5114744;28;20118;-67
2022/05/07 12:47:32;;;;;;;13.27;8.70;;;18.60;99.90;;;;;;5114443;28;20046;-66
2022/05/07 12:49:57;;;;;;;13.77;8.80;;;18.50;99.90;;;;;;5116046;28;20043;-67
2022/05/07 12:52:23;;;;;;;12.43;9.47;;;18.50;99.90;;;;;;5114729;28;20050;-67
2022/05/07 12:54:49;;;;;;;12.93;9.90;;;18.50;99.90;;;;;;5115431;28;20483;-67
2022/05/07 12:57:15;;;;;;;18.10;12.57;;;18.40;99.90;;;;;;5115461;28;20497;-67
2022/05/07 12:59:42;;;;;;;15.70;11.70;;;18.40;99.90;;;;;;5097496;28;20484;-67
2022/05/07 13:02:11;;;;;;;13.97;11.53;;;18.40;99.90;;;;;;5097704;28;20510;-69
2022/05/07 13:04:36;;;;;;;12.63;9.97;;;18.40;99.90;;;;;;5115297;28;20048;-67
2022/05/07 13:07:03;;;;;;;11.20;7.40;;;18.30;99.90;;;;;;5115858;28;20046;-67
2022/05/07 13:09:29;;;;;;;11.20;7.90;;;18.40;99.90;;;;;;5115534;28;20054;-67
2022/05/07 13:11:56;;;;;;;10.90;8.87;;;18.40;99.90;;;;;;5115261;28;20052;-67
2022/05/07 13:14:22;;;;;;;13.03;9.43;;;18.50;99.90;;;;;;5115442;28;20047;-67
2022/05/07 13:16:48;;;;;;;15.07;10.00;;;18.50;99.90;;;;;;5115071;28;20115;-68
2022/05/07 13:19:14;;;;;;;14.27;10.40;;;18.40;99.90;;;;;;5115402;28;20044;-68
2022/05/07 13:21:44;;;;;;;13.40;10.93;;;18.30;99.90;;;;;;5115035;28;20047;-68
2022/05/07 13:24:11;;;;;;;13.77;10.20;;;18.30;99.90;;;;;;5115398;28;20148;-68